createdAt,value
2017-05-23T00:00:59.417Z,96.75
2017-05-23T00:02:10.438Z,96.66
2017-05-23T00:03:21.507Z,96.47
2017-05-23T00:04:32.529Z,97.23
2017-05-23T00:05:43.537Z,96.94
2017-05-23T00:06:54.750Z,96.84
2017-05-23T00:08:05.762Z,96.94
2017-05-23T00:09:17.030Z,95.6
2017-05-23T00:10:28.048Z,96.27
2017-05-23T00:11:39.055Z,97.9
2017-05-23T00:12:50.073Z,98.76
2017-05-23T00:14:01.301Z,97.42
2017-05-23T00:15:12.571Z,97.42
2017-05-23T00:16:23.794Z,96.75
2017-05-23T00:17:34.818Z,97.14
2017-05-23T00:18:45.847Z,98.19
2017-05-23T00:19:56.860Z,99.19
2017-05-23T00:21:07.929Z,98.62
2017-05-23T00:22:18.940Z,98.24
2017-05-23T00:23:29.952Z,99
2017-05-23T00:24:41.023Z,99.58
2017-05-23T00:25:52.039Z,97.95
2017-05-23T00:27:03.303Z,98.14
2017-05-23T00:28:14.529Z,98.62
2017-05-23T00:29:25.603Z,97.28
2017-05-23T00:30:36.622Z,97.28
2017-05-23T00:31:48.036Z,96.51
2017-05-23T00:32:59.099Z,96.7
2017-05-23T00:34:10.315Z,97.85
2017-05-23T00:35:21.327Z,98.05
2017-05-23T00:36:32.334Z,98.05
2017-05-23T00:37:43.352Z,98.33
2017-05-23T00:38:54.424Z,97.66
2017-05-23T00:40:05.452Z,96.99
2017-05-23T00:41:16.457Z,97.85
2017-05-23T00:42:27.470Z,99.19
2017-05-23T00:43:38.480Z,99.58
2017-05-23T00:44:49.555Z,99
2017-05-23T00:46:00.580Z,99.1
2017-05-23T00:47:11.592Z,99.38
2017-05-23T00:48:22.606Z,99.19
2017-05-23T00:49:33.638Z,98.05
2017-05-23T00:50:44.655Z,99
2017-05-23T00:51:55.660Z,99.1
2017-05-23T00:53:06.888Z,99.48
2017-05-23T00:54:17.955Z,98.62
2017-05-23T00:55:29.221Z,98.71
2017-05-23T00:56:40.251Z,98.91
2017-05-23T00:57:51.469Z,99.1
2017-05-23T00:59:02.487Z,99.15
2017-05-23T01:00:13.493Z,99.67
2017-05-23T01:01:24.565Z,98.95
2017-05-23T01:02:35.786Z,99.05
2017-05-23T01:03:46.796Z,97.8
2017-05-23T01:04:57.812Z,97.33
2017-05-23T01:06:09.029Z,95.61
2017-05-23T01:07:20.084Z,95.12
2017-05-23T01:08:31.314Z,94.93
2017-05-23T01:09:42.321Z,94.84
2017-05-23T01:10:53.340Z,95.61
2017-05-23T01:12:04.355Z,95.89
2017-05-23T01:13:15.427Z,96.37
2017-05-23T01:14:26.430Z,97.04
2017-05-23T01:15:37.442Z,98.66
2017-05-23T01:16:48.459Z,99.99
2017-05-23T01:17:59.473Z,99.99
2017-05-23T01:19:10.551Z,99.99
2017-05-23T01:20:21.571Z,99.99
2017-05-23T01:21:32.582Z,99.99
2017-05-23T01:22:43.594Z,99.99
2017-05-23T01:23:54.818Z,99.05
2017-05-23T01:25:05.894Z,97.8
2017-05-23T01:26:17.113Z,98
2017-05-23T01:27:28.122Z,96.84
2017-05-23T01:28:39.140Z,97.47
2017-05-23T01:29:50.216Z,97.8
2017-05-23T01:31:01.288Z,97.18
2017-05-23T01:32:12.300Z,97.52
2017-05-23T01:33:23.517Z,98.95
2017-05-23T01:34:34.543Z,99.33
2017-05-23T01:35:45.555Z,99.99
2017-05-23T01:36:56.607Z,99.99
2017-05-23T01:38:07.622Z,99.99
2017-05-23T01:39:18.631Z,99.99
2017-05-23T01:40:29.845Z,99.99
2017-05-23T01:41:41.061Z,99.99
2017-05-23T01:42:52.326Z,99.99
2017-05-23T01:44:03.344Z,99.86
2017-05-23T01:45:14.617Z,99.76
2017-05-23T01:46:25.651Z,99.99
2017-05-23T01:47:36.668Z,99.57
2017-05-23T01:48:47.742Z,99.38
2017-05-23T01:49:58.766Z,98.14
2017-05-23T01:51:09.779Z,98.61
2017-05-23T01:52:20.798Z,98.61
2017-05-23T01:53:31.814Z,99.38
2017-05-23T01:54:42.881Z,99.99
2017-05-23T01:55:53.888Z,99.29
2017-05-23T01:57:04.901Z,99.99
2017-05-23T01:58:15.933Z,99.99
2017-05-23T01:59:26.939Z,99.99
2017-05-23T02:00:37.958Z,99.99
2017-05-23T02:01:48.976Z,99.43
2017-05-23T02:02:59.996Z,98.47
2017-05-23T02:04:11.003Z,98.18
2017-05-23T02:05:22.065Z,97.9
2017-05-23T02:06:33.279Z,96.84
2017-05-23T02:07:44.288Z,97.42
2017-05-23T02:08:55.300Z,99.99
2017-05-23T02:10:06.311Z,99.99
2017-05-23T02:11:17.586Z,99.99
2017-05-23T02:12:28.804Z,99.99
2017-05-23T02:13:39.823Z,99.99
2017-05-23T02:14:50.847Z,99.99
2017-05-23T02:16:01.868Z,99.99
2017-05-23T02:17:12.927Z,99.99
2017-05-23T02:18:23.933Z,99.99
2017-05-23T02:19:34.954Z,99.99
2017-05-23T02:20:45.971Z,99.99
2017-05-23T02:21:56.987Z,99.99
2017-05-23T02:23:08.273Z,99.99
2017-05-23T02:24:19.288Z,99.99
2017-05-23T02:25:30.337Z,99.43
2017-05-23T02:26:41.560Z,98.09
2017-05-23T02:27:52.592Z,97.33
2017-05-23T02:29:03.662Z,96.84
2017-05-23T02:30:14.879Z,97.13
2017-05-23T02:31:26.094Z,97.8
2017-05-23T02:32:37.123Z,97.99
2017-05-23T02:33:48.330Z,99.33
2017-05-23T02:34:59.383Z,99.99
2017-05-23T02:36:10.598Z,98.95
2017-05-23T02:37:21.616Z,98.57
2017-05-23T02:38:32.633Z,97.99
2017-05-23T02:39:43.852Z,97.04
2017-05-23T02:40:54.863Z,97.13
2017-05-23T02:42:05.878Z,96.37
2017-05-23T02:43:17.092Z,97.13
2017-05-23T02:44:28.108Z,97.99
2017-05-23T02:45:39.175Z,99.04
2017-05-23T02:46:50.190Z,99.99
2017-05-23T02:48:01.403Z,99.99
2017-05-23T02:49:12.417Z,99.99
2017-05-23T02:50:23.436Z,99.52
2017-05-23T02:51:34.509Z,99.04
2017-05-23T02:52:45.725Z,97.61
2017-05-23T02:53:56.749Z,97.8
2017-05-23T02:55:07.959Z,97.04
2017-05-23T02:56:18.967Z,96.84
2017-05-23T02:57:30.026Z,96.84
2017-05-23T02:58:41.041Z,97.61
2017-05-23T02:59:52.048Z,99.99
2017-05-23T03:01:03.262Z,99.99
2017-05-23T03:02:14.327Z,99.99
2017-05-23T03:03:25.406Z,99.99
2017-05-23T03:04:36.408Z,99.99
2017-05-23T03:05:47.429Z,99.99
2017-05-23T03:06:58.438Z,99.99
2017-05-23T03:08:09.463Z,99.99
2017-05-23T03:09:20.516Z,99.99
2017-05-23T03:10:31.516Z,99.99
2017-05-23T03:11:42.528Z,99.99
2017-05-23T03:12:53.542Z,99.99
2017-05-23T03:14:04.556Z,99.99
2017-05-23T03:15:15.607Z,99.99
2017-05-23T03:16:26.663Z,99.99
2017-05-23T03:17:37.684Z,99.99
2017-05-23T03:18:48.696Z,99.99
2017-05-23T03:20:00.116Z,99.99
2017-05-23T03:21:11.385Z,99.99
2017-05-23T03:22:22.398Z,99.99
2017-05-23T03:23:33.404Z,99.38
2017-05-23T03:24:44.425Z,99.99
2017-05-23T03:25:55.433Z,99.99
2017-05-23T03:27:06.696Z,99.99
2017-05-23T03:28:17.713Z,99.99
2017-05-23T03:29:28.729Z,99.99
2017-05-23T03:30:39.745Z,99.99
2017-05-23T03:31:50.959Z,99.99
2017-05-23T03:33:02.034Z,99.99
2017-05-23T03:34:13.250Z,99.99
2017-05-23T03:35:24.276Z,99.99
2017-05-23T03:36:35.287Z,99.99
2017-05-23T03:37:46.301Z,99.99
2017-05-23T03:38:57.564Z,99.99
2017-05-23T03:40:08.561Z,99.95
2017-05-23T03:41:19.571Z,99.38
2017-05-23T03:42:30.651Z,99.99
2017-05-23T03:43:41.660Z,99.99
2017-05-23T03:44:52.927Z,99.99
2017-05-23T03:46:04.149Z,99.99
2017-05-23T03:47:15.162Z,99.28
2017-05-23T03:48:26.252Z,98.04
2017-05-23T03:49:37.467Z,97.75
2017-05-23T03:50:48.701Z,99.99
2017-05-23T03:51:59.722Z,99.99
2017-05-23T03:53:10.722Z,99.99
2017-05-23T03:54:21.746Z,99.99
2017-05-23T03:55:32.804Z,99.99
2017-05-23T03:56:44.016Z,99.99
2017-05-23T03:57:55.226Z,99.99
2017-05-23T03:59:06.233Z,99.9
2017-05-23T04:00:17.240Z,99.43
2017-05-23T04:01:28.309Z,99.14
2017-05-23T04:02:39.323Z,98.66
2017-05-23T04:03:50.328Z,99.9
2017-05-23T04:05:01.354Z,99.99
2017-05-23T04:06:12.577Z,99.99
2017-05-23T04:07:23.638Z,99.99
2017-05-23T04:08:34.645Z,99.99
2017-05-23T04:09:45.670Z,99.62
2017-05-23T04:10:56.685Z,99.9
2017-05-23T04:12:07.955Z,99.99
2017-05-23T04:13:19.021Z,99.43
2017-05-23T04:14:30.045Z,99.14
2017-05-23T04:15:41.057Z,97.99
2017-05-23T04:16:52.284Z,97.99
2017-05-23T04:18:03.304Z,98.13
2017-05-23T04:19:14.587Z,98.42
2017-05-23T04:20:25.585Z,97.85
2017-05-23T04:21:36.595Z,97.08
2017-05-23T04:22:47.595Z,96.99
2017-05-23T04:23:58.591Z,96.99
2017-05-23T04:25:10.057Z,96.94
2017-05-23T04:26:21.076Z,96.37
2017-05-23T04:27:32.093Z,97.13
2017-05-23T04:28:43.306Z,95.7
2017-05-23T04:29:54.311Z,95.7
2017-05-23T04:31:05.425Z,98.24
2017-05-23T04:32:16.635Z,96.61
2017-05-23T04:33:27.659Z,97.18
2017-05-23T04:34:38.734Z,98.19
2017-05-23T04:35:49.958Z,97.33
2017-05-23T04:37:01.020Z,96.7
2017-05-23T04:38:12.262Z,94.79
2017-05-23T04:39:23.285Z,94.74
2017-05-23T04:40:34.305Z,93.59
2017-05-23T04:41:45.321Z,92.73
2017-05-23T04:42:56.378Z,90.47
2017-05-23T04:44:07.396Z,91.14
2017-05-23T04:45:18.618Z,92.39
2017-05-23T04:46:29.841Z,90.28
2017-05-23T04:47:40.851Z,90.86
2017-05-23T04:48:51.913Z,90.57
2017-05-23T04:50:02.945Z,91.24
2017-05-23T04:51:13.954Z,89.8
2017-05-23T04:52:24.959Z,90.14
2017-05-23T04:53:35.985Z,91.48
2017-05-23T04:54:47.467Z,90.04
2017-05-23T04:55:58.489Z,89.7
2017-05-23T04:57:09.502Z,91.05
2017-05-23T04:58:20.510Z,92.96
2017-05-23T04:59:31.525Z,90.7
2017-05-23T05:00:42.544Z,91.47
2017-05-23T05:01:53.571Z,88.59
2017-05-23T05:03:04.588Z,90.08
2017-05-23T05:04:15.609Z,91.13
2017-05-23T05:05:26.683Z,89.22
2017-05-23T05:06:37.688Z,89.4
2017-05-23T05:07:48.725Z,89.6
2017-05-23T05:08:59.742Z,88.06
2017-05-23T05:10:10.755Z,88.3
2017-05-23T05:11:22.030Z,87.24
2017-05-23T05:12:33.050Z,88.83
2017-05-23T05:13:44.078Z,88.64
2017-05-23T05:14:55.306Z,88.54
2017-05-23T05:16:06.328Z,89.98
2017-05-23T05:17:17.403Z,88.49
2017-05-23T05:18:28.421Z,88.02
2017-05-23T05:19:39.439Z,89.46
2017-05-23T05:20:50.459Z,89.36
2017-05-23T05:22:01.475Z,88.49
2017-05-23T05:23:12.600Z,86.96
2017-05-23T05:24:23.822Z,89.84
2017-05-23T05:25:34.836Z,89.26
2017-05-23T05:26:45.846Z,89.99
2017-05-23T05:27:56.869Z,89.32
2017-05-23T05:29:07.939Z,90.08
2017-05-23T05:30:18.959Z,90.95
2017-05-23T05:31:30.381Z,90.66
2017-05-23T05:32:41.409Z,90.95
2017-05-23T05:33:52.429Z,90.95
2017-05-23T05:35:03.499Z,91.52
2017-05-23T05:36:14.536Z,91.62
2017-05-23T05:37:25.558Z,91.62
2017-05-23T05:38:36.645Z,91.52
2017-05-23T05:39:47.670Z,91.81
2017-05-23T05:40:58.685Z,92.14
2017-05-23T05:42:09.902Z,92.53
2017-05-23T05:43:20.921Z,93.01
2017-05-23T05:44:31.936Z,93.59
2017-05-23T05:45:43.015Z,92.86
2017-05-23T05:46:54.036Z,92.77
2017-05-23T05:48:05.121Z,91.33
2017-05-23T05:49:16.125Z,90.27
2017-05-23T05:50:27.170Z,91.52
2017-05-23T05:51:38.441Z,91.23
2017-05-23T05:52:49.465Z,91.52
2017-05-23T05:54:00.495Z,91.13
2017-05-23T05:55:11.513Z,91.13
2017-05-23T05:56:22.527Z,90.75
2017-05-23T05:57:33.995Z,92
2017-05-23T05:58:45.031Z,91.42
2017-05-23T05:59:56.044Z,91.28
2017-05-23T06:01:07.269Z,91.95
2017-05-23T06:02:18.696Z,90.07
2017-05-23T06:03:29.768Z,90.75
2017-05-23T06:04:40.789Z,89.01
2017-05-23T06:05:51.808Z,86.22
2017-05-23T06:07:03.027Z,88.82
2017-05-23T06:08:14.053Z,89.06
2017-05-23T06:09:25.126Z,86.41
2017-05-23T06:10:36.351Z,86.79
2017-05-23T06:11:47.359Z,86.6
2017-05-23T06:12:58.387Z,88.04
2017-05-23T06:14:09.415Z,87.95
2017-05-23T06:15:20.496Z,87.37
2017-05-23T06:16:31.582Z,87.85
2017-05-23T06:17:42.665Z,88.71
2017-05-23T06:18:53.719Z,87.18
2017-05-23T06:20:04.741Z,86.65
2017-05-23T06:21:15.805Z,86.49
2017-05-23T06:22:26.826Z,85.28
2017-05-23T06:23:37.850Z,85.77
2017-05-23T06:24:48.890Z,82.62
2017-05-23T06:25:59.926Z,81.85
2017-05-23T06:27:11.201Z,80.74
2017-05-23T06:28:22.230Z,80.1
2017-05-23T06:29:33.259Z,78.56
2017-05-23T06:30:44.494Z,75.41
2017-05-23T06:31:55.521Z,73.93
2017-05-23T06:33:06.603Z,74.06
2017-05-23T06:34:17.830Z,74.54
2017-05-23T06:35:29.077Z,75.74
2017-05-23T06:36:40.100Z,74.77
2017-05-23T06:37:51.315Z,72.45
2017-05-23T06:39:02.410Z,69.88
2017-05-23T06:40:13.438Z,69.04
2017-05-23T06:41:24.511Z,68.98
2017-05-23T06:42:35.543Z,68.21
2017-05-23T06:43:46.572Z,69.21
2017-05-23T06:44:57.853Z,68.24
2017-05-23T06:46:08.874Z,69.4
2017-05-23T06:47:20.104Z,69.89
2017-05-23T06:48:31.134Z,71.34
2017-05-23T06:49:42.160Z,72.21
2017-05-23T06:50:53.187Z,72.79
2017-05-23T06:52:04.209Z,71.82
2017-05-23T06:53:15.239Z,72.3
2017-05-23T06:54:26.280Z,71.44
2017-05-23T06:55:37.360Z,70.89
2017-05-23T06:56:48.389Z,71.66
2017-05-23T06:57:59.632Z,71.41
2017-05-23T06:59:10.683Z,70.73
2017-05-23T07:00:21.704Z,70.44
2017-05-23T07:01:32.782Z,71.37
2017-05-23T07:02:43.819Z,73.02
2017-05-23T07:03:54.845Z,72.79
2017-05-23T07:05:05.880Z,72.05
2017-05-23T07:06:16.903Z,71.76
2017-05-23T07:07:27.984Z,71.89
2017-05-23T07:08:39.020Z,69.67
2017-05-23T07:09:50.837Z,68.24
2017-05-23T07:11:04.204Z,67.95
2017-05-23T07:12:18.070Z,66.82
2017-05-23T07:13:32.263Z,65.85
2017-05-23T07:14:44.509Z,65.79
2017-05-23T07:15:57.611Z,67.11
2017-05-23T07:17:09.065Z,68.37
2017-05-23T07:18:21.304Z,66.69
2017-05-23T07:19:32.334Z,67.57
2017-05-23T07:20:43.780Z,67.47
2017-05-23T07:21:55.205Z,66.69
2017-05-23T07:23:06.235Z,66.5
2017-05-23T07:24:17.314Z,67.18
2017-05-23T07:25:29.321Z,66.79
2017-05-23T07:26:41.322Z,67.47
2017-05-23T07:27:52.350Z,67.47
2017-05-23T07:29:03.376Z,68.6
2017-05-23T07:30:14.392Z,69.67
2017-05-23T07:31:25.620Z,69.73
2017-05-23T07:32:36.658Z,70.31
2017-05-23T07:33:47.909Z,70.08
2017-05-23T07:34:58.945Z,69.53
2017-05-23T07:36:10.019Z,68.66
2017-05-23T07:37:21.266Z,68.12
2017-05-23T07:38:32.290Z,68.54
2017-05-23T07:39:43.329Z,68.05
2017-05-23T07:40:54.421Z,67.02
2017-05-23T07:42:05.438Z,68.08
2017-05-23T07:43:16.464Z,68.57
2017-05-23T07:44:27.499Z,68.54
2017-05-23T07:45:38.728Z,68.08
2017-05-23T07:46:49.794Z,68.66
2017-05-23T07:48:00.829Z,68.7
2017-05-23T07:49:11.864Z,68.51
2017-05-23T07:50:22.906Z,69.09
2017-05-23T07:51:33.942Z,68.18
2017-05-23T07:52:45.229Z,68.51
2017-05-23T07:53:56.257Z,68.79
2017-05-23T07:55:07.296Z,68.79
2017-05-23T07:56:18.529Z,68.7
2017-05-23T07:57:29.567Z,67.54
2017-05-23T07:58:40.653Z,67.44
2017-05-23T07:59:51.693Z,67.28
2017-05-23T08:01:02.725Z,67.54
2017-05-23T08:02:13.761Z,68.41
2017-05-23T08:03:24.786Z,68.76
2017-05-23T08:04:35.891Z,69.73
2017-05-23T08:05:46.920Z,70.31
2017-05-23T08:06:57.948Z,70.31
2017-05-23T08:08:08.965Z,68.7
2017-05-23T08:09:19.991Z,66.69
2017-05-23T08:10:31.015Z,66.5
2017-05-23T08:11:42.351Z,67.37
2017-05-23T08:12:54.161Z,65.92
2017-05-23T08:14:06.030Z,66.69
2017-05-23T08:15:17.104Z,65.53
2017-05-23T08:16:28.323Z,65.17
2017-05-23T08:17:39.567Z,64.78
2017-05-23T08:18:50.616Z,65.47
2017-05-23T08:20:01.850Z,65.56
2017-05-23T08:21:12.933Z,65.01
2017-05-23T08:22:23.968Z,62.9
2017-05-23T08:23:35.003Z,63.49
2017-05-23T08:24:46.039Z,63.81
2017-05-23T08:25:57.067Z,62.26
2017-05-23T08:27:08.145Z,62.74
2017-05-23T08:28:19.179Z,63.52
2017-05-23T08:29:30.223Z,63.06
2017-05-23T08:30:41.243Z,62.87
2017-05-23T08:31:52.273Z,61.8
2017-05-23T08:33:03.349Z,62.32
2017-05-23T08:34:14.377Z,62.67
2017-05-23T08:35:25.591Z,62.67
2017-05-23T08:36:36.622Z,60.82
2017-05-23T08:37:47.714Z,62.57
2017-05-23T08:38:58.866Z,62.35
2017-05-23T08:40:09.931Z,62.19
2017-05-23T08:41:21.159Z,61.7
2017-05-23T08:42:32.204Z,61.99
2017-05-23T08:43:43.242Z,62.64
2017-05-23T08:44:54.334Z,61.99
2017-05-23T08:46:05.375Z,62.06
2017-05-23T08:47:16.395Z,62.45
2017-05-23T08:48:27.622Z,62.09
2017-05-23T08:49:38.658Z,62.29
2017-05-23T08:50:49.683Z,62.77
2017-05-23T08:52:00.703Z,62.22
2017-05-23T08:53:11.730Z,60.95
2017-05-23T08:54:22.765Z,60.66
2017-05-23T08:55:33.863Z,61.96
2017-05-23T08:56:44.902Z,62.25
2017-05-23T08:57:55.939Z,60.42
2017-05-23T08:59:06.980Z,60.69
2017-05-23T09:00:18.016Z,61.08
2017-05-23T09:01:29.096Z,61.47
2017-05-23T09:02:40.341Z,60.59
2017-05-23T09:03:51.565Z,61.37
2017-05-23T09:05:02.799Z,61.5
2017-05-23T09:06:13.828Z,61.01
2017-05-23T09:07:24.905Z,60.91
2017-05-23T09:08:36.137Z,61.21
2017-05-23T09:09:47.375Z,60.72
2017-05-23T09:10:58.618Z,61.21
2017-05-23T09:12:09.662Z,60.72
2017-05-23T09:13:20.749Z,62.05
2017-05-23T09:14:32.184Z,61.37
2017-05-23T09:15:43.216Z,60.42
2017-05-23T09:16:54.319Z,60.59
2017-05-23T09:18:05.546Z,60.69
2017-05-23T09:19:16.629Z,62.44
2017-05-23T09:20:27.672Z,61.96
2017-05-23T09:21:38.711Z,60.85
2017-05-23T09:22:49.741Z,62.02
2017-05-23T09:24:00.815Z,62.6
2017-05-23T09:25:11.901Z,61.93
2017-05-23T09:26:22.940Z,61.8
2017-05-23T09:27:33.970Z,61.96
2017-05-23T09:28:45.005Z,62.96
2017-05-23T09:29:56.036Z,62.67
2017-05-23T09:31:07.108Z,61.34
2017-05-23T09:32:18.406Z,62.51
2017-05-23T09:33:29.436Z,62.19
2017-05-23T09:34:40.666Z,63.35
2017-05-23T09:35:51.694Z,62.77
2017-05-23T09:37:02.779Z,62.67
2017-05-23T09:38:13.820Z,63.35
2017-05-23T09:39:25.073Z,64.39
2017-05-23T09:40:36.311Z,63.81
2017-05-23T09:41:47.538Z,63.16
2017-05-23T09:42:58.620Z,62.93
2017-05-23T09:44:09.657Z,64.39
2017-05-23T09:45:20.684Z,64.62
2017-05-23T09:46:31.705Z,64.72
2017-05-23T09:47:42.739Z,63.87
2017-05-23T09:48:53.829Z,62.99
2017-05-23T09:50:04.859Z,62.05
2017-05-23T09:51:15.894Z,62.44
2017-05-23T09:52:27.330Z,62.15
2017-05-23T09:53:38.366Z,62.32
2017-05-23T09:54:49.453Z,61.93
2017-05-23T09:56:00.489Z,63.58
2017-05-23T09:57:11.515Z,65.14
2017-05-23T09:58:22.554Z,62.6
2017-05-23T09:59:33.787Z,64.04
2017-05-23T10:00:44.828Z,64.91
2017-05-23T10:01:56.061Z,64.62
2017-05-23T10:03:07.093Z,63.75
2017-05-23T10:04:18.113Z,64.04
2017-05-23T10:05:29.405Z,63.45
2017-05-23T10:06:40.431Z,62.29
2017-05-23T10:07:51.471Z,62.29
2017-05-23T10:09:02.505Z,64.81
2017-05-23T10:10:13.542Z,65.3
2017-05-23T10:11:24.699Z,63.45
2017-05-23T10:12:35.929Z,64.52
2017-05-23T10:13:47.172Z,64.72
2017-05-23T10:14:58.209Z,63.84
2017-05-23T10:16:09.234Z,62.09
2017-05-23T10:17:20.324Z,64.72
2017-05-23T10:18:31.364Z,64.65
2017-05-23T10:19:42.387Z,62.8
2017-05-23T10:20:53.429Z,63.39
2017-05-23T10:22:04.511Z,62.63
2017-05-23T10:23:15.594Z,62.73
2017-05-23T10:24:26.619Z,61.86
2017-05-23T10:25:37.652Z,62.12
2017-05-23T10:26:48.682Z,62.67
2017-05-23T10:27:59.709Z,64.42
2017-05-23T10:29:10.787Z,64.52
2017-05-23T10:30:21.816Z,64.07
2017-05-23T10:31:32.842Z,62.8
2017-05-23T10:32:43.865Z,64
2017-05-23T10:33:55.185Z,66.56
2017-05-23T10:35:07.458Z,65.69
2017-05-23T10:36:18.493Z,66.37
2017-05-23T10:37:29.715Z,63.75
2017-05-23T10:38:40.751Z,66.41
2017-05-23T10:39:51.785Z,64.65
2017-05-23T10:41:02.890Z,64.78
2017-05-23T10:42:13.921Z,63.42
2017-05-23T10:43:24.956Z,63.32
2017-05-23T10:44:35.993Z,63.97
2017-05-23T10:45:47.031Z,64.17
2017-05-23T10:46:58.316Z,64
2017-05-23T10:48:09.343Z,63.42
2017-05-23T10:49:20.365Z,63.48
2017-05-23T10:50:31.591Z,64.84
2017-05-23T10:51:42.602Z,63.09
2017-05-23T10:52:53.689Z,64.55
2017-05-23T10:54:04.918Z,63.97
2017-05-23T10:55:15.939Z,63.22
2017-05-23T10:56:27.169Z,62.83
2017-05-23T10:57:38.194Z,62.73
2017-05-23T10:58:49.286Z,62.25
2017-05-23T11:00:00.319Z,62.6
2017-05-23T11:01:11.333Z,61.93
2017-05-23T11:02:22.364Z,62.25
2017-05-23T11:03:33.386Z,62.54
2017-05-23T11:04:44.466Z,61.37
2017-05-23T11:05:55.508Z,61.83
2017-05-23T11:07:06.526Z,62.19
2017-05-23T11:08:17.561Z,62.6
2017-05-23T11:09:28.593Z,61.83
2017-05-23T11:10:39.609Z,62.12
2017-05-23T11:11:50.649Z,61.76
2017-05-23T11:13:01.685Z,61.96
2017-05-23T11:14:12.705Z,62.93
2017-05-23T11:15:23.786Z,61.96
2017-05-23T11:16:34.812Z,62.83
2017-05-23T11:17:45.915Z,63.32
2017-05-23T11:18:56.940Z,63.42
2017-05-23T11:20:07.983Z,64.29
2017-05-23T11:21:19.063Z,62.25
2017-05-23T11:22:30.291Z,62.41
2017-05-23T11:23:41.314Z,63.09
2017-05-23T11:24:52.337Z,64.17
2017-05-23T11:26:03.378Z,62.7
2017-05-23T11:27:14.462Z,63.12
2017-05-23T11:28:25.502Z,63.29
2017-05-23T11:29:36.590Z,62.99
2017-05-23T11:30:47.619Z,63.19
2017-05-23T11:31:58.653Z,63.71
2017-05-23T11:33:09.935Z,62.6
2017-05-23T11:34:21.221Z,62.41
2017-05-23T11:35:32.262Z,63.12
2017-05-23T11:36:43.296Z,61.47
2017-05-23T11:37:54.331Z,62.02
2017-05-23T11:39:05.407Z,60.85
2017-05-23T11:40:16.447Z,62.96
2017-05-23T11:41:27.483Z,62.57
2017-05-23T11:42:38.511Z,61.11
2017-05-23T11:43:49.543Z,61.15
2017-05-23T11:45:00.634Z,61.34
2017-05-23T11:46:12.072Z,61.93
2017-05-23T11:47:23.097Z,60.85
2017-05-23T11:48:34.124Z,61.08
2017-05-23T11:49:45.356Z,61.18
2017-05-23T11:50:56.388Z,57.96
2017-05-23T11:52:07.413Z,60.75
2017-05-23T11:53:18.438Z,60.66
2017-05-23T11:54:29.476Z,59.1
2017-05-23T11:55:40.558Z,58.84
2017-05-23T11:56:51.570Z,62.02
2017-05-23T11:58:02.595Z,61.15
2017-05-23T11:59:13.630Z,59.49
2017-05-23T12:00:24.672Z,60.36
2017-05-23T12:01:35.749Z,59.1
2017-05-23T12:02:46.775Z,60.24
2017-05-23T12:03:57.993Z,61.83
2017-05-23T12:05:09.229Z,60.75
2017-05-23T12:06:20.239Z,60.66
2017-05-23T12:07:31.307Z,59.78
2017-05-23T12:08:42.334Z,58.06
2017-05-23T12:09:53.356Z,59.81
2017-05-23T12:11:04.401Z,58.45
2017-05-23T12:12:15.839Z,56.92
2017-05-23T12:13:26.925Z,55.75
2017-05-23T12:14:37.948Z,57.24
2017-05-23T12:15:48.974Z,57.53
2017-05-23T12:17:00.205Z,56.36
2017-05-23T12:18:11.233Z,56.04
2017-05-23T12:19:22.306Z,55.85
2017-05-23T12:20:33.345Z,58.09
2017-05-23T12:21:44.572Z,57.5
2017-05-23T12:22:55.591Z,55.99
2017-05-23T12:24:06.609Z,59.39
2017-05-23T12:25:17.689Z,59.56
2017-05-23T12:26:29.121Z,59.27
2017-05-23T12:27:40.155Z,60.5
2017-05-23T12:28:51.254Z,61.08
2017-05-23T12:30:02.284Z,58.26
2017-05-23T12:31:13.370Z,60.5
2017-05-23T12:32:24.601Z,62.03
2017-05-23T12:33:35.647Z,59.59
2017-05-23T12:34:46.679Z,59.11
2017-05-23T12:35:58.404Z,60.67
2017-05-23T12:37:10.238Z,62.81
2017-05-23T12:38:21.322Z,64.75
2017-05-23T12:39:32.577Z,65.33
2017-05-23T12:40:43.817Z,62.45
2017-05-23T12:41:54.845Z,62.35
2017-05-23T12:43:05.920Z,59.53
2017-05-23T12:44:16.966Z,61.77
2017-05-23T12:45:28.203Z,58.95
2017-05-23T12:46:39.299Z,60.5
2017-05-23T12:47:50.326Z,60.77
2017-05-23T12:49:01.543Z,61.96
2017-05-23T12:50:12.584Z,62.71
2017-05-23T12:51:23.615Z,62.32
2017-05-23T12:52:34.643Z,60.67
2017-05-23T12:53:45.669Z,61.93
2017-05-23T12:54:56.733Z,60.41
2017-05-23T12:56:07.964Z,60.41
2017-05-23T12:57:18.993Z,58.46
2017-05-23T12:58:30.076Z,57.81
2017-05-23T12:59:41.103Z,60.44
2017-05-23T13:00:52.146Z,58.2
2017-05-23T13:02:03.367Z,58.39
2017-05-23T13:03:14.703Z,57.61
2017-05-23T13:04:25.741Z,55.27
2017-05-23T13:05:36.812Z,57.9
2017-05-23T13:06:47.831Z,58.39
2017-05-23T13:07:59.052Z,57.42
2017-05-23T13:09:10.098Z,58.1
2017-05-23T13:10:21.325Z,56.74
2017-05-23T13:11:32.430Z,57.71
2017-05-23T13:12:44.313Z,57.32
2017-05-23T13:13:56.633Z,58.17
2017-05-23T13:15:09.519Z,57.87
2017-05-23T13:16:20.558Z,58.92
2017-05-23T13:17:31.618Z,60.18
2017-05-23T13:18:42.657Z,61.51
2017-05-23T13:19:54.590Z,63.26
2017-05-23T13:21:06.436Z,62.1
2017-05-23T13:22:17.502Z,61.9
2017-05-23T13:23:28.785Z,64.23
2017-05-23T13:24:39.825Z,61.61
2017-05-23T13:25:51.058Z,58.98
2017-05-23T13:27:02.084Z,59.28
2017-05-23T13:28:13.367Z,59.38
2017-05-23T13:29:24.451Z,60.25
2017-05-23T13:30:35.525Z,60.35
2017-05-23T13:31:46.592Z,60.35
2017-05-23T13:32:57.626Z,60.35
2017-05-23T13:34:08.665Z,60.77
2017-05-23T13:35:19.743Z,59.11
2017-05-23T13:36:30.769Z,59.21
2017-05-23T13:37:42.241Z,59.11
2017-05-23T13:38:53.269Z,60.44
2017-05-23T13:40:04.292Z,60.47
2017-05-23T13:41:15.414Z,60.28
2017-05-23T13:42:26.427Z,60.28
2017-05-23T13:43:37.495Z,61.41
2017-05-23T13:44:48.523Z,62.23
2017-05-23T13:45:59.548Z,61.74
2017-05-23T13:47:10.631Z,61.83
2017-05-23T13:48:22.807Z,62.61
2017-05-23T13:49:33.848Z,63
2017-05-23T13:50:44.882Z,63.29
2017-05-23T13:51:55.901Z,62.41
2017-05-23T13:53:07.183Z,62.19
2017-05-23T13:54:18.213Z,61.71
2017-05-23T13:55:29.260Z,62.19
2017-05-23T13:56:40.294Z,64.49
2017-05-23T13:57:51.518Z,65.5
2017-05-23T13:59:02.603Z,64.81
2017-05-23T14:00:13.633Z,63.75
2017-05-23T14:01:25.066Z,62.87
2017-05-23T14:02:36.091Z,64.33
2017-05-23T14:03:47.108Z,63.94
2017-05-23T14:04:58.183Z,64.33
2017-05-23T14:06:09.207Z,63.36
2017-05-23T14:07:20.257Z,63.65
2017-05-23T14:08:31.280Z,62.16
2017-05-23T14:09:42.502Z,60.9
2017-05-23T14:10:53.581Z,62.26
2017-05-23T14:12:04.604Z,62.55
2017-05-23T14:13:15.648Z,64.75
2017-05-23T14:14:26.664Z,62.55
2017-05-23T14:15:37.899Z,62.94
2017-05-23T14:16:48.971Z,64.3
2017-05-23T14:18:00.021Z,66.5
2017-05-23T14:19:11.060Z,65.05
2017-05-23T14:20:22.088Z,66.6
2017-05-23T14:21:33.108Z,68.6
2017-05-23T14:22:44.181Z,68.79
2017-05-23T14:23:55.223Z,69.54
2017-05-23T14:25:06.238Z,70.51
2017-05-23T14:26:17.255Z,70.47
2017-05-23T14:27:28.492Z,70.86
2017-05-23T14:28:39.558Z,71.25
2017-05-23T14:29:50.584Z,71.5
2017-05-23T14:31:01.661Z,71.5
2017-05-23T14:32:12.692Z,72.96
2017-05-23T14:33:23.741Z,72.83
2017-05-23T14:34:34.808Z,72.28
2017-05-23T14:35:45.842Z,72.83
2017-05-23T14:36:56.888Z,73.02
2017-05-23T14:38:07.913Z,72.67
2017-05-23T14:39:18.936Z,71.89
2017-05-23T14:40:30.012Z,72.28
2017-05-23T14:41:41.049Z,70.67
2017-05-23T14:42:52.068Z,70.37
2017-05-23T14:44:03.293Z,70.09
2017-05-23T14:45:14.311Z,69.64
2017-05-23T14:46:25.380Z,69.99
2017-05-23T14:47:36.407Z,71.54
2017-05-23T14:48:47.461Z,70.86
2017-05-23T14:49:58.478Z,71.73
2017-05-23T14:51:09.698Z,72.22
2017-05-23T14:52:20.767Z,72.22
2017-05-23T14:53:32.046Z,71.83
2017-05-23T14:54:43.277Z,70.12
2017-05-23T14:55:54.294Z,68.76
2017-05-23T14:57:05.358Z,69.54
2017-05-23T14:58:16.743Z,69.83
2017-05-23T14:59:27.782Z,68.28
2017-05-23T15:00:38.812Z,70.41
2017-05-23T15:01:50.044Z,69.06
2017-05-23T15:03:01.275Z,70.7
2017-05-23T15:04:12.357Z,69.15
2017-05-23T15:05:23.429Z,69.79
2017-05-23T15:06:34.450Z,69.79
2017-05-23T15:07:45.606Z,70.63
2017-05-23T15:08:56.633Z,70.05
2017-05-23T15:10:07.704Z,70.92
2017-05-23T15:11:18.928Z,70.6
2017-05-23T15:12:30.145Z,70.25
2017-05-23T15:13:41.631Z,71.41
2017-05-23T15:14:52.693Z,70.63
2017-05-23T15:16:03.991Z,71.22
2017-05-23T15:17:15.010Z,69.95
2017-05-23T15:18:26.069Z,71.47
2017-05-23T15:19:37.102Z,71.56